Central Oregon RPC :: WINNEMUCCA

liberation: 2021-05-30  05:30     latitude: 40.794513     longitude: -117.127050 29 birds
# LOFT PRING MILES ARRIVAL SPEED ToWin
1 TIM GRAVES AU17-FHI-0202 308.353 2021-05-30 12:33:14.338 1282.257 00:00:00
2 STEELE LOFT AU19-JEDD-1973 321.177 2021-05-30 13:42:47.495 1147.081 00:51:57
3 TOPIGEONUSA AU18-CORP-4272 320.466 2021-05-30 13:45:50.738 1137.493 00:55:59
4 LUCAS CRAMER AU20-TBW-20076 331.482 2021-05-30 14:32:19.859 1075.741 01:27:21
5 TOPIGEONUSA AU19-CORP-4912 320.466 2021-05-30 14:27:25.286 1049.494 01:37:33
6 LUCAS CRAMER AU19-LKC-4661 331.482 2021-05-30 15:23:59.303 982.187 02:19:00
7 AMERICAN LOFT AU18-CORP-2549 309.35 2021-05-30 15:38:04.886 895.367 03:03:28
8 AMERICAN LOFT AU17-CORP-0078 309.35 2021-05-30 16:33:16.073 820.869 03:58:40
9 TOPIGEONUSA AU14-CORP-1078 320.466 2021-05-30 17:35:15.175 777.688 04:45:23
10 TOPIGEONUSA AU19-CORP-4908 320.466 2021-05-30 17:43:16.787 769.175 04:53:25
11 ROCKY TOP AU19-ARPU-29027 311.65 2021-05-30 17:28:02.146 763.896 04:50:16
12 TOPIGEONUSA AU20-CORP-4841 320.466 2021-05-30 17:52:21.740 759.765 05:02:30
13 RUETER FAMILY LOFT AU19-CORP-5331 336.16 2021-05-30 19:20:11.906 712.652 06:08:47
14 ROCKY TOP AU20-CORP-4404 311.65 2021-05-30 19:15:07.018 664.760 06:37:21
15 STEELE LOFT AU15-CORP-3873 321.177 2021-05-31 06:24:02.761 561.261 09:26:18
16 TIM GRAVES AU17-FHI-1014 308.353 2021-05-31 06:57:51.645 521.347 10:17:43
17 ROCKY TOP AU18-CORP-3386 311.65 2021-05-31 07:17:17.652 517.265 10:32:38
18 TIM GRAVES AU19-CBF-3498 308.353 2021-05-31 08:13:49.433 485.889 11:33:41
19 LUCAS CRAMER AU20-NANZ-0042 331.482 2021-05-31 09:46:12.880 482.428 12:34:20
20 TIM GRAVES AU15-ARPU-14510 308.353 2021-05-31 09:08:13.094 463.325 12:28:05
21 TIM GRAVES AU20-CORP-4720 308.353 2021-05-31 11:38:57.170 410.499 14:58:49
AMERICAN LOFT AU15-CORP-3683 0 0000-00-00 00:00:00.000 0.000 00:00:00
AMERICAN LOFT AU16-CORP-7444 0 0000-00-00 00:00:00.000 0.000 00:00:00
AMERICAN LOFT AU16-CORP-7557 0 0000-00-00 00:00:00.000 0.000 00:00:00
AMERICAN LOFT AU17-CORP-0096 0 0000-00-00 00:00:00.000 0.000 00:00:00
LUCAS CRAMER AU20-FAM-0007 0 0000-00-00 00:00:00.000 0.000 00:00:00
LUCAS CRAMER AU20-RAC-2818 0 0000-00-00 00:00:00.000 0.000 00:00:00
ROCKY TOP AU19-CORP-4421 0 0000-00-00 00:00:00.000 0.000 00:00:00
RUETER FAMILY LOFT AU19-CORP-5408 0 0000-00-00 00:00:00.000 0.000 00:00:00